createdAt,value
2022-10-30T00:00:47.314Z,10.03
2022-10-30T00:01:50.177Z,10.18
2022-10-30T00:02:52.438Z,10.86
2022-10-30T00:03:54.996Z,9.36
2022-10-30T00:04:56.899Z,10.72
2022-10-30T00:05:59.162Z,10.30
2022-10-30T00:07:01.216Z,12.04
2022-10-30T00:08:03.472Z,12.33
2022-10-30T00:09:05.380Z,13.02
2022-10-30T00:10:09.026Z,10.08
2022-10-30T00:11:13.833Z,13.29
2022-10-30T00:12:15.960Z,12.96
2022-10-30T00:13:18.902Z,12.77
2022-10-30T00:14:24.300Z,11.76
2022-10-30T00:15:27.157Z,15.18
2022-10-30T00:16:29.150Z,12.47
2022-10-30T00:17:33.211Z,11.91
2022-10-30T00:18:39.043Z,11.03
2022-10-30T00:19:41.894Z,14.23
2022-10-30T00:20:45.116Z,8.30
2022-10-30T00:21:47.124Z,10.80
2022-10-30T00:22:50.905Z,12.04
2022-10-30T00:23:53.544Z,15.11
2022-10-30T00:24:56.286Z,13.89
2022-10-30T00:26:03.922Z,10.29
2022-10-30T00:27:06.365Z,9.81
2022-10-30T00:28:08.289Z,9.41
2022-10-30T00:29:10.164Z,11.23
2022-10-30T00:30:13.047Z,8.91
2022-10-30T00:31:16.009Z,8.54
2022-10-30T00:32:18.102Z,12.40
2022-10-30T00:33:21.496Z,8.82
2022-10-30T00:34:23.411Z,11.67
2022-10-30T00:35:26.067Z,12.49
2022-10-30T00:36:28.296Z,9.61
2022-10-30T00:37:30.222Z,9.57
2022-10-30T00:38:33.258Z,9.69
2022-10-30T00:39:35.252Z,10.39
2022-10-30T00:40:37.325Z,10.87
2022-10-30T00:41:39.558Z,11.90
2022-10-30T00:42:42.040Z,8.75
2022-10-30T00:43:44.206Z,11.25
2022-10-30T00:44:52.695Z,8.80
2022-10-30T00:45:57.195Z,10.84
2022-10-30T00:47:03.046Z,10.89
2022-10-30T00:48:05.475Z,9.71
2022-10-30T00:49:14.037Z,9.79
2022-10-30T00:50:20.291Z,9.26
2022-10-30T00:51:24.233Z,9.77
2022-10-30T00:52:29.934Z,11.20
2022-10-30T00:53:33.404Z,10.69
2022-10-30T00:54:36.527Z,12.45
2022-10-30T00:55:44.981Z,11.05
2022-10-30T00:56:49.528Z,10.89
2022-10-30T00:57:53.938Z,11.49
2022-10-30T01:00:15.020Z,12.12
2022-10-30T01:01:20.260Z,10.03
2022-10-30T01:02:24.150Z,12.85
2022-10-30T01:03:28.394Z,8.12
2022-10-30T01:04:33.241Z,9.94
2022-10-30T01:05:36.425Z,12.14
2022-10-30T01:06:42.333Z,8.11
2022-10-30T01:07:44.272Z,11.11
2022-10-30T01:08:47.262Z,11.39
2022-10-30T01:09:49.313Z,7.69
2022-10-30T01:10:51.624Z,10.48
2022-10-30T01:11:53.524Z,9.97
2022-10-30T01:12:57.913Z,8.03
2022-10-30T01:14:03.622Z,10.19
2022-10-30T01:15:08.632Z,7.36
2022-10-30T01:16:44.434Z,7.49
2022-10-30T01:17:56.050Z,8.73
2022-10-30T01:19:02.339Z,9.99
2022-10-30T01:20:35.355Z,9.36
2022-10-30T01:22:05.381Z,8.77
2022-10-30T01:23:17.291Z,10.44
2022-10-30T01:24:35.398Z,9.42
2022-10-30T01:25:41.075Z,8.26
2022-10-30T01:26:50.281Z,8.93
2022-10-30T01:28:11.121Z,11.01
2022-10-30T01:29:36.470Z,10.14
2022-10-30T01:30:45.268Z,7.90
2022-10-30T01:31:57.014Z,13.31
2022-10-30T01:33:18.050Z,8.61
2022-10-30T01:34:30.353Z,9.72
2022-10-30T01:35:39.066Z,9.68
2022-10-30T01:36:44.849Z,9.31
2022-10-30T01:38:05.156Z,9.53
2022-10-30T01:39:13.845Z,7.97
2022-10-30T01:40:18.255Z,8.57
2022-10-30T01:41:20.474Z,9.54
2022-10-30T01:42:49.062Z,8.90
2022-10-30T01:45:05.200Z,8.92
2022-10-30T01:46:43.224Z,10.36
2022-10-30T01:48:18.282Z,10.64
2022-10-30T01:49:26.519Z,7.41
2022-10-30T01:50:38.097Z,10.98
2022-10-30T01:51:56.030Z,8.14
2022-10-30T01:53:19.979Z,12.31
2022-10-30T01:54:38.005Z,8.92
2022-10-30T01:56:15.668Z,9.48
2022-10-30T01:57:45.381Z,7.84
2022-10-30T01:59:12.508Z,9.00
2022-10-30T02:00:16.721Z,10.13
2022-10-30T02:01:20.071Z,7.96
2022-10-30T02:02:24.385Z,9.74
2022-10-30T02:03:27.508Z,8.71
2022-10-30T02:04:30.806Z,7.62
2022-10-30T02:05:42.537Z,7.23
2022-10-30T02:06:45.311Z,8.44
2022-10-30T02:07:47.915Z,7.23
2022-10-30T02:08:49.864Z,9.25
2022-10-30T02:09:54.172Z,9.10
2022-10-30T02:10:57.620Z,10.34
2022-10-30T02:12:01.143Z,10.14
2022-10-30T02:13:03.569Z,7.32
2022-10-30T02:14:08.470Z,6.88
2022-10-30T02:15:12.430Z,11.71
2022-10-30T02:16:14.746Z,8.03
2022-10-30T02:17:19.529Z,8.19
2022-10-30T02:18:21.460Z,7.33
2022-10-30T02:19:24.949Z,10.24
2022-10-30T02:20:27.638Z,9.79
2022-10-30T02:21:30.696Z,7.95
2022-10-30T02:22:33.133Z,10.81
2022-10-30T02:23:35.475Z,7.47
2022-10-30T02:24:38.648Z,6.31
2022-10-30T02:25:40.529Z,8.88
2022-10-30T02:26:42.495Z,9.15
2022-10-30T02:27:45.351Z,8.38
2022-10-30T02:28:47.762Z,8.81
2022-10-30T02:29:49.753Z,7.19
2022-10-30T02:30:51.880Z,10.81
2022-10-30T02:31:53.978Z,7.67
2022-10-30T02:32:56.587Z,11.08
2022-10-30T02:33:58.708Z,7.60
2022-10-30T02:35:00.680Z,11.28
2022-10-30T02:36:02.950Z,7.93
2022-10-30T02:37:04.954Z,11.29
2022-10-30T02:38:06.957Z,8.07
2022-10-30T02:39:10.853Z,8.83
2022-10-30T02:40:14.870Z,7.44
2022-10-30T02:41:16.932Z,7.71
2022-10-30T02:42:19.029Z,6.97
2022-10-30T02:43:20.922Z,6.45
2022-10-30T02:44:22.837Z,5.89
2022-10-30T02:45:25.743Z,9.60
2022-10-30T02:46:27.872Z,7.81
2022-10-30T02:47:29.998Z,8.11
2022-10-30T02:48:33.445Z,8.49
2022-10-30T02:49:36.321Z,9.72
2022-10-30T02:50:38.506Z,7.71
2022-10-30T02:51:40.495Z,10.36
2022-10-30T02:52:42.406Z,9.54
2022-10-30T02:53:44.655Z,8.65
2022-10-30T02:54:46.553Z,8.42
2022-10-30T02:55:48.433Z,7.99
2022-10-30T02:56:50.508Z,8.46
2022-10-30T02:57:54.249Z,9.89
2022-10-30T02:58:56.154Z,7.39
2022-10-30T02:59:58.042Z,10.99
2022-10-30T03:01:12.370Z,8.14
2022-10-30T03:02:14.436Z,9.19
2022-10-30T03:03:18.690Z,8.23
2022-10-30T03:04:20.816Z,6.97
2022-10-30T03:05:25.737Z,9.88
2022-10-30T03:06:27.754Z,8.71
2022-10-30T03:07:29.629Z,6.60
2022-10-30T03:08:31.721Z,7.78
2022-10-30T03:09:35.751Z,7.32
2022-10-30T03:10:37.766Z,8.36
2022-10-30T03:11:39.653Z,9.63
2022-10-30T03:12:41.519Z,7.36
2022-10-30T03:13:45.119Z,7.27
2022-10-30T03:14:47.027Z,6.85
2022-10-30T03:15:48.939Z,8.78
2022-10-30T03:16:50.917Z,9.65
2022-10-30T03:17:52.927Z,7.30
2022-10-30T03:18:55.917Z,8.05
2022-10-30T03:19:58.758Z,6.01
2022-10-30T03:21:04.354Z,8.29
2022-10-30T03:22:06.861Z,7.73
2022-10-30T03:23:08.775Z,6.50
2022-10-30T03:24:10.675Z,7.92
2022-10-30T03:25:13.083Z,7.60
2022-10-30T03:26:16.500Z,9.09
2022-10-30T03:27:19.301Z,8.48
2022-10-30T03:28:23.476Z,6.86
2022-10-30T03:29:25.604Z,6.79
2022-10-30T03:30:27.686Z,8.71
2022-10-30T03:31:30.786Z,6.94
2022-10-30T03:32:32.699Z,9.08
2022-10-30T03:33:35.694Z,9.29
2022-10-30T03:34:38.283Z,7.72
2022-10-30T03:35:40.165Z,6.63
2022-10-30T03:36:42.153Z,8.33
2022-10-30T03:37:44.026Z,8.18
2022-10-30T03:38:45.936Z,7.69
2022-10-30T03:39:47.829Z,7.39
2022-10-30T03:40:50.505Z,7.97
2022-10-30T03:41:52.743Z,8.47
2022-10-30T03:42:55.164Z,8.84
2022-10-30T03:43:57.331Z,6.88
2022-10-30T03:44:59.223Z,5.40
2022-10-30T03:46:01.245Z,9.70
2022-10-30T03:47:05.187Z,6.65
2022-10-30T03:48:08.148Z,6.38
2022-10-30T03:49:10.035Z,8.19
2022-10-30T03:50:13.185Z,7.87
2022-10-30T03:51:15.300Z,6.68
2022-10-30T03:52:17.185Z,5.49
2022-10-30T03:53:19.349Z,8.91
2022-10-30T03:54:21.250Z,9.61
2022-10-30T03:55:24.721Z,8.33
2022-10-30T03:56:26.803Z,8.76
2022-10-30T03:57:28.950Z,8.50
2022-10-30T03:58:30.856Z,9.51
2022-10-30T03:59:33.101Z,7.40
2022-10-30T04:00:36.534Z,9.09
2022-10-30T04:01:38.846Z,9.63
2022-10-30T04:02:46.149Z,7.44
2022-10-30T04:03:48.168Z,7.71
2022-10-30T04:04:50.064Z,9.91
2022-10-30T04:05:53.041Z,8.34
2022-10-30T04:06:55.164Z,6.08
2022-10-30T04:07:58.869Z,8.15
2022-10-30T04:09:00.825Z,7.06
2022-10-30T04:10:04.280Z,5.93
2022-10-30T04:11:08.220Z,7.58
2022-10-30T04:12:12.878Z,7.21
2022-10-30T04:13:17.522Z,9.71
2022-10-30T04:14:19.466Z,6.89
2022-10-30T04:15:21.356Z,9.04
2022-10-30T04:16:23.504Z,8.59
2022-10-30T04:17:25.861Z,10.63
2022-10-30T04:18:28.019Z,6.73
2022-10-30T04:19:30.591Z,7.12
2022-10-30T04:20:34.000Z,6.40
2022-10-30T04:21:36.068Z,7.58
2022-10-30T04:22:38.354Z,6.57
2022-10-30T04:23:40.651Z,5.77
2022-10-30T04:24:42.910Z,6.90
2022-10-30T04:25:46.354Z,17.05
2022-10-30T04:26:49.482Z,10.99
2022-10-30T04:27:51.383Z,5.71
2022-10-30T04:28:53.285Z,6.77
2022-10-30T04:29:55.176Z,8.99
2022-10-30T04:30:57.921Z,6.50
2022-10-30T04:32:00.144Z,7.43
2022-10-30T04:33:04.718Z,9.67
2022-10-30T04:34:06.786Z,8.24
2022-10-30T04:35:09.377Z,6.57
2022-10-30T04:36:11.573Z,6.87
2022-10-30T04:37:13.559Z,9.81
2022-10-30T04:38:18.477Z,6.84
2022-10-30T04:39:21.114Z,7.38
2022-10-30T04:40:28.583Z,6.96
2022-10-30T04:41:30.711Z,5.64
2022-10-30T04:42:32.866Z,5.27
2022-10-30T04:43:35.523Z,4.95
2022-10-30T04:44:37.413Z,5.41
2022-10-30T04:45:40.943Z,6.66
2022-10-30T04:46:42.982Z,7.46
2022-10-30T04:47:47.592Z,6.13
2022-10-30T04:48:50.423Z,6.56
2022-10-30T04:49:53.020Z,7.75
2022-10-30T04:50:59.911Z,4.66
2022-10-30T04:52:03.378Z,6.61
2022-10-30T04:53:13.016Z,5.27
2022-10-30T04:54:14.993Z,5.38
2022-10-30T04:55:18.201Z,5.78
2022-10-30T04:56:21.419Z,6.56
2022-10-30T04:57:24.117Z,7.47
2022-10-30T04:58:26.118Z,7.41
2022-10-30T04:59:28.347Z,6.12
2022-10-30T05:00:32.560Z,5.59
2022-10-30T05:01:36.074Z,4.83
2022-10-30T05:02:40.500Z,6.05
2022-10-30T05:03:42.842Z,5.65
2022-10-30T05:04:46.978Z,5.78
2022-10-30T05:06:04.817Z,11.06
2022-10-30T05:07:07.370Z,8.37
2022-10-30T05:08:10.372Z,6.10
2022-10-30T05:09:13.331Z,6.54
2022-10-30T05:10:19.818Z,5.28
2022-10-30T05:11:22.026Z,7.55
2022-10-30T05:12:24.780Z,7.67
2022-10-30T05:13:26.948Z,4.91
2022-10-30T05:14:31.745Z,6.64
2022-10-30T05:15:33.761Z,6.99
2022-10-30T05:16:35.732Z,5.73
2022-10-30T05:17:38.470Z,4.14
2022-10-30T05:18:40.369Z,7.42
2022-10-30T05:19:42.375Z,4.31
2022-10-30T05:20:46.571Z,3.99
2022-10-30T05:21:50.950Z,8.04
2022-10-30T05:22:57.973Z,6.68
2022-10-30T05:24:00.408Z,6.00
2022-10-30T05:25:05.431Z,5.56
2022-10-30T05:26:10.423Z,10.19
2022-10-30T05:27:14.679Z,6.68
2022-10-30T05:28:17.214Z,4.67
2022-10-30T05:29:23.903Z,6.47
2022-10-30T05:30:30.762Z,5.34
2022-10-30T05:31:34.541Z,5.26
2022-10-30T05:32:40.246Z,4.90
2022-10-30T05:33:42.165Z,6.34
2022-10-30T05:34:46.505Z,4.89
2022-10-30T05:35:51.339Z,6.99
2022-10-30T05:36:55.045Z,7.80
2022-10-30T05:37:57.118Z,4.41
2022-10-30T05:38:58.990Z,5.23
2022-10-30T05:40:01.303Z,7.19
2022-10-30T05:41:03.513Z,5.51
2022-10-30T05:42:12.706Z,4.19
2022-10-30T05:43:11.955Z,5.04
2022-10-30T05:44:18.085Z,5.74
2022-10-30T05:45:22.935Z,6.42
2022-10-30T05:46:27.237Z,5.08
2022-10-30T05:47:29.610Z,5.56
2022-10-30T05:48:32.365Z,6.47
2022-10-30T05:49:34.933Z,4.93
2022-10-30T05:50:37.064Z,3.73
2022-10-30T05:51:40.620Z,5.03
2022-10-30T05:52:44.151Z,3.79
2022-10-30T05:54:58.798Z,8.24
2022-10-30T05:56:02.929Z,7.02
2022-10-30T05:57:05.885Z,7.50
2022-10-30T05:58:09.848Z,4.13
2022-10-30T05:59:13.301Z,4.24
2022-10-30T06:00:18.789Z,3.79
2022-10-30T06:01:21.425Z,3.77
2022-10-30T06:02:23.540Z,4.32
2022-10-30T06:03:28.134Z,4.10
2022-10-30T06:04:30.242Z,5.41
2022-10-30T06:05:35.631Z,4.11
2022-10-30T06:06:37.701Z,8.19
2022-10-30T06:07:40.252Z,4.76
2022-10-30T06:08:42.143Z,5.87
2022-10-30T06:09:44.066Z,3.05
2022-10-30T06:10:48.260Z,6.53
2022-10-30T06:11:50.185Z,5.82
2022-10-30T06:12:57.986Z,5.07
2022-10-30T06:14:00.873Z,4.22
2022-10-30T06:15:04.143Z,4.14
2022-10-30T06:16:08.057Z,5.46
2022-10-30T06:17:10.004Z,6.95
2022-10-30T06:18:11.918Z,3.64
2022-10-30T06:19:17.543Z,4.59
2022-10-30T06:20:20.097Z,4.05
2022-10-30T06:21:23.042Z,3.99
2022-10-30T06:22:25.716Z,5.35
2022-10-30T06:23:31.624Z,6.65
2022-10-30T06:24:34.542Z,6.44
2022-10-30T06:25:41.045Z,3.68
2022-10-30T06:26:45.772Z,6.43
2022-10-30T06:27:48.394Z,5.67
2022-10-30T06:28:50.428Z,5.08
2022-10-30T06:29:52.477Z,4.15
2022-10-30T06:30:54.872Z,4.93
2022-10-30T06:31:58.690Z,3.41
2022-10-30T06:33:03.264Z,6.09
2022-10-30T06:34:05.185Z,4.36
2022-10-30T06:35:08.100Z,4.74
2022-10-30T06:36:11.197Z,6.76
2022-10-30T06:37:13.142Z,4.99
2022-10-30T06:38:16.005Z,3.53
2022-10-30T06:39:17.928Z,6.96
2022-10-30T06:40:20.853Z,9.82
2022-10-30T06:41:26.120Z,5.04
2022-10-30T06:42:29.429Z,5.50
2022-10-30T06:43:31.398Z,5.04
2022-10-30T06:44:33.285Z,4.46
2022-10-30T06:45:35.493Z,4.41
2022-10-30T06:46:37.610Z,5.37
2022-10-30T06:47:39.839Z,3.80
2022-10-30T06:48:43.721Z,4.12
2022-10-30T06:49:45.734Z,3.33
2022-10-30T06:50:53.745Z,4.13
2022-10-30T06:51:55.709Z,8.26
2022-10-30T06:52:57.714Z,6.80
2022-10-30T06:53:59.822Z,4.00
2022-10-30T06:55:03.525Z,8.90
2022-10-30T06:56:08.469Z,5.23
2022-10-30T06:57:10.444Z,4.33
2022-10-30T06:58:12.422Z,5.73
2022-10-30T06:59:14.440Z,4.01
2022-10-30T07:00:17.045Z,4.90
2022-10-30T07:01:19.054Z,7.31
2022-10-30T07:02:21.440Z,4.31
2022-10-30T07:03:23.802Z,5.21
2022-10-30T07:04:25.808Z,4.69
2022-10-30T07:05:27.856Z,7.23
2022-10-30T07:06:30.927Z,3.69
2022-10-30T07:07:32.937Z,4.01
2022-10-30T07:08:35.101Z,5.67
2022-10-30T07:09:38.540Z,3.91
2022-10-30T07:10:40.531Z,6.04
2022-10-30T07:11:42.611Z,5.42
2022-10-30T07:12:54.350Z,7.31
2022-10-30T07:13:56.486Z,5.29
2022-10-30T07:14:58.561Z,6.52
2022-10-30T07:16:00.638Z,5.37
2022-10-30T07:17:02.960Z,4.41
2022-10-30T07:18:05.217Z,4.65
2022-10-30T07:19:07.212Z,7.38
2022-10-30T07:20:10.567Z,5.19
2022-10-30T07:21:12.538Z,5.51
2022-10-30T07:22:14.425Z,5.35
2022-10-30T07:23:16.303Z,5.37
2022-10-30T07:24:20.436Z,3.61
2022-10-30T07:25:23.009Z,4.52
2022-10-30T07:26:25.382Z,3.97
2022-10-30T07:27:27.254Z,5.64
2022-10-30T07:28:29.256Z,5.90
2022-10-30T07:29:31.241Z,7.37
2022-10-30T07:30:33.221Z,5.17
2022-10-30T07:31:42.756Z,5.85
2022-10-30T07:32:39.536Z,6.32
2022-10-30T07:33:43.942Z,3.03
2022-10-30T07:34:45.930Z,5.51
2022-10-30T07:35:47.822Z,6.55
2022-10-30T07:36:50.716Z,4.27
2022-10-30T07:37:53.060Z,4.49
2022-10-30T07:38:55.086Z,6.21
2022-10-30T07:40:02.481Z,4.19
2022-10-30T07:41:04.806Z,3.59
2022-10-30T07:42:06.729Z,4.45
2022-10-30T07:43:09.323Z,5.37
2022-10-30T07:44:11.230Z,4.09
2022-10-30T07:45:13.374Z,7.25
2022-10-30T07:46:15.561Z,5.13
2022-10-30T07:47:17.532Z,4.41
2022-10-30T07:48:20.734Z,3.27
2022-10-30T07:49:22.803Z,4.48
2022-10-30T07:50:25.811Z,6.23
2022-10-30T07:51:27.691Z,8.18
2022-10-30T07:52:33.900Z,3.46
2022-10-30T07:53:36.272Z,2.78
2022-10-30T07:54:38.159Z,4.18
2022-10-30T07:55:42.164Z,4.85
2022-10-30T07:56:44.415Z,3.28
2022-10-30T07:57:46.292Z,5.44
2022-10-30T07:58:50.129Z,4.35
2022-10-30T07:59:52.046Z,2.94
2022-10-30T08:00:55.179Z,10.19
2022-10-30T08:01:58.556Z,3.69
2022-10-30T08:03:01.765Z,4.93
2022-10-30T08:04:04.788Z,3.69
2022-10-30T08:05:08.127Z,4.21
2022-10-30T08:06:11.346Z,3.19
2022-10-30T08:07:13.344Z,4.72
2022-10-30T08:08:16.571Z,10.28
2022-10-30T08:09:18.465Z,6.10
2022-10-30T08:10:20.574Z,4.67
2022-10-30T08:11:23.702Z,4.29
2022-10-30T08:12:26.690Z,4.71
2022-10-30T08:13:28.713Z,4.02
2022-10-30T08:14:30.645Z,3.39
2022-10-30T08:15:42.161Z,2.32
2022-10-30T08:16:44.510Z,3.11
2022-10-30T08:17:51.670Z,4.28
2022-10-30T08:18:54.257Z,7.48
2022-10-30T08:20:06.713Z,3.20
2022-10-30T08:21:10.136Z,3.39
2022-10-30T08:23:40.913Z,4.54
2022-10-30T08:24:43.383Z,3.68
2022-10-30T08:25:47.575Z,5.69
2022-10-30T08:26:51.762Z,3.06
2022-10-30T08:29:19.429Z,4.67
2022-10-30T08:30:55.264Z,2.24
2022-10-30T08:31:58.424Z,2.81
2022-10-30T08:34:14.325Z,3.30
2022-10-30T08:35:20.126Z,4.22
2022-10-30T08:36:23.058Z,5.88
2022-10-30T08:37:25.012Z,4.22
2022-10-30T08:38:30.193Z,2.96
2022-10-30T08:39:32.497Z,4.35
2022-10-30T08:40:34.492Z,4.65
2022-10-30T08:41:37.708Z,5.50
2022-10-30T08:42:39.730Z,4.84
2022-10-30T08:43:41.690Z,7.08
2022-10-30T08:44:43.763Z,4.99
2022-10-30T08:45:46.393Z,4.15
2022-10-30T08:46:48.588Z,3.03
2022-10-30T08:47:58.983Z,3.71
2022-10-30T08:49:01.620Z,3.69
2022-10-30T08:50:04.784Z,2.30
2022-10-30T08:51:07.291Z,3.49
2022-10-30T08:52:09.602Z,3.04
2022-10-30T08:53:13.764Z,4.96
2022-10-30T08:54:15.715Z,3.80
2022-10-30T08:55:17.700Z,5.37
2022-10-30T08:56:20.611Z,4.05
2022-10-30T08:57:22.749Z,3.51
2022-10-30T08:58:26.019Z,6.36
2022-10-30T08:59:27.952Z,3.72
2022-10-30T09:00:30.845Z,4.04
2022-10-30T09:01:33.587Z,4.53
2022-10-30T09:02:38.542Z,7.34
2022-10-30T09:03:40.693Z,3.56
2022-10-30T09:04:43.245Z,4.75
2022-10-30T09:05:46.336Z,3.31
2022-10-30T09:06:50.950Z,5.85
2022-10-30T09:07:57.705Z,4.19
2022-10-30T09:09:00.334Z,3.86
2022-10-30T09:10:03.676Z,6.21
2022-10-30T09:11:06.160Z,4.58
2022-10-30T09:12:08.118Z,3.79
2022-10-30T09:13:10.133Z,2.53
2022-10-30T09:14:12.018Z,4.73
2022-10-30T09:15:14.183Z,4.47
2022-10-30T09:16:16.782Z,5.02
2022-10-30T09:17:18.777Z,6.35
2022-10-30T09:18:20.692Z,4.19
2022-10-30T09:19:22.662Z,2.84
2022-10-30T09:20:27.395Z,5.44
2022-10-30T09:21:31.837Z,4.44
2022-10-30T09:22:36.383Z,5.75
2022-10-30T09:23:39.261Z,4.56
2022-10-30T09:24:41.169Z,3.39
2022-10-30T09:25:44.964Z,4.66
2022-10-30T09:26:47.009Z,3.68
2022-10-30T09:27:48.891Z,4.07
2022-10-30T09:28:51.340Z,4.05
2022-10-30T09:29:53.239Z,3.23
2022-10-30T09:30:55.320Z,3.46
2022-10-30T09:32:02.357Z,4.14
2022-10-30T09:33:07.408Z,4.27
2022-10-30T09:34:09.438Z,3.34
2022-10-30T09:35:11.384Z,2.50
2022-10-30T09:36:16.874Z,6.27
2022-10-30T09:37:18.416Z,5.02
2022-10-30T09:38:20.289Z,6.31
2022-10-30T09:39:22.307Z,2.55
2022-10-30T09:40:47.297Z,5.48
2022-10-30T09:42:13.579Z,4.58
2022-10-30T09:43:40.270Z,4.28
2022-10-30T09:47:38.235Z,3.36
2022-10-30T09:48:50.423Z,5.44
2022-10-30T09:50:05.532Z,4.23
2022-10-30T09:51:11.247Z,4.31
2022-10-30T09:52:42.795Z,3.76
2022-10-30T09:53:57.628Z,2.37
2022-10-30T09:55:03.341Z,4.93
2022-10-30T09:56:25.313Z,4.59
2022-10-30T09:57:36.748Z,2.98
2022-10-30T10:00:19.038Z,5.43
2022-10-30T10:01:34.068Z,5.26
2022-10-30T10:02:40.158Z,6.74
2022-10-30T10:04:02.744Z,3.79
2022-10-30T10:05:20.562Z,4.90
2022-10-30T10:06:25.201Z,4.06
2022-10-30T10:07:33.991Z,3.98
2022-10-30T10:08:42.545Z,5.59
2022-10-30T10:09:47.796Z,3.16
2022-10-30T10:12:13.257Z,5.76
2022-10-30T10:13:18.949Z,2.67
2022-10-30T10:14:27.812Z,4.32
2022-10-30T10:15:42.292Z,3.30
2022-10-30T10:16:48.430Z,5.43
2022-10-30T10:17:51.086Z,4.39
2022-10-30T10:19:06.026Z,3.56
2022-10-30T10:20:21.167Z,3.59
2022-10-30T10:21:28.558Z,5.64
2022-10-30T10:22:44.500Z,7.28
2022-10-30T10:23:50.103Z,10.04
2022-10-30T10:24:53.975Z,5.67
2022-10-30T10:25:59.961Z,6.14
2022-10-30T10:27:28.831Z,3.97
2022-10-30T10:31:22.925Z,3.42
2022-10-30T10:32:48.535Z,4.90
2022-10-30T10:34:00.330Z,4.01
2022-10-30T10:35:28.875Z,3.08
2022-10-30T10:36:43.919Z,4.00
2022-10-30T10:38:02.157Z,3.67
2022-10-30T10:39:13.849Z,3.63
2022-10-30T10:40:20.048Z,3.99
2022-10-30T10:41:53.406Z,3.98
2022-10-30T10:43:05.210Z,4.27
2022-10-30T10:44:22.588Z,6.74
2022-10-30T10:45:37.203Z,4.08
2022-10-30T10:46:49.992Z,3.41
2022-10-30T10:49:23.392Z,4.21
2022-10-30T10:50:29.628Z,3.89
2022-10-30T10:51:41.536Z,3.67
2022-10-30T10:52:51.762Z,3.02
2022-10-30T10:54:04.043Z,7.44
2022-10-30T10:55:19.931Z,2.53
2022-10-30T10:56:25.793Z,2.38
2022-10-30T10:57:42.395Z,3.96
2022-10-30T10:58:58.838Z,3.81
2022-10-30T11:00:08.950Z,3.52
2022-10-30T11:01:20.304Z,4.13
2022-10-30T11:03:46.939Z,5.47
2022-10-30T11:04:52.930Z,4.66
2022-10-30T11:05:58.583Z,5.92
2022-10-30T11:07:05.691Z,6.26
2022-10-30T11:08:30.005Z,4.78
2022-10-30T11:09:39.374Z,7.16
2022-10-30T11:10:42.698Z,6.85
2022-10-30T11:11:45.980Z,6.24
2022-10-30T11:12:48.284Z,4.53
2022-10-30T11:13:59.449Z,3.33
2022-10-30T11:15:22.188Z,4.01
2022-10-30T11:16:36.926Z,2.52
2022-10-30T11:17:43.321Z,3.49
2022-10-30T11:18:49.708Z,3.38
2022-10-30T11:21:11.975Z,5.50
2022-10-30T11:22:31.236Z,5.02
2022-10-30T11:23:46.329Z,4.28
2022-10-30T11:24:48.461Z,7.48
2022-10-30T11:26:09.516Z,4.96
2022-10-30T11:27:27.575Z,3.24
2022-10-30T11:28:42.096Z,3.39
2022-10-30T11:29:51.100Z,4.57
2022-10-30T11:30:59.584Z,5.39
2022-10-30T11:32:06.407Z,6.92
2022-10-30T11:33:24.592Z,3.68
2022-10-30T11:34:32.957Z,3.04
2022-10-30T11:35:38.766Z,2.28
2022-10-30T11:36:42.704Z,3.81
2022-10-30T11:37:47.501Z,7.11
2022-10-30T11:38:50.634Z,3.05
2022-10-30T11:39:59.659Z,3.68
2022-10-30T11:41:02.134Z,8.07
2022-10-30T11:42:16.804Z,4.45
2022-10-30T11:43:22.540Z,3.47
2022-10-30T11:44:46.399Z,2.18
2022-10-30T11:45:49.655Z,3.97
2022-10-30T11:46:52.736Z,4.56
2022-10-30T11:48:01.135Z,4.03
2022-10-30T11:49:03.351Z,3.05
2022-10-30T11:50:23.371Z,4.97
2022-10-30T11:51:39.794Z,3.94
2022-10-30T11:52:43.781Z,4.02
2022-10-30T11:53:49.794Z,5.82
2022-10-30T11:56:14.228Z,3.91
2022-10-30T11:57:22.918Z,3.14
2022-10-30T11:58:34.414Z,2.70
2022-10-30T11:59:38.290Z,2.82
2022-10-30T12:00:41.190Z,3.88
2022-10-30T12:02:00.460Z,3.70
2022-10-30T12:04:15.851Z,2.82
2022-10-30T12:05:27.309Z,2.66
2022-10-30T12:06:29.633Z,4.78
2022-10-30T12:07:32.813Z,2.55
2022-10-30T12:08:38.248Z,5.56
2022-10-30T12:09:44.710Z,4.18
2022-10-30T12:10:53.602Z,3.24
2022-10-30T12:11:57.321Z,3.64
2022-10-30T12:13:04.928Z,3.24
2022-10-30T12:14:10.983Z,2.63
2022-10-30T12:15:17.272Z,5.20
2022-10-30T12:16:19.594Z,3.59
2022-10-30T12:17:24.260Z,3.78
2022-10-30T12:19:31.071Z,3.56
2022-10-30T12:20:38.193Z,3.50
2022-10-30T12:21:46.759Z,3.24
2022-10-30T12:22:49.147Z,2.55
2022-10-30T12:23:59.582Z,3.84
2022-10-30T12:25:05.886Z,2.61
2022-10-30T12:26:11.844Z,3.31
2022-10-30T12:27:19.741Z,2.08
2022-10-30T12:30:07.277Z,4.77
2022-10-30T12:30:53.725Z,4.32
2022-10-30T12:32:02.713Z,2.72
2022-10-30T12:33:17.647Z,4.46
2022-10-30T12:34:42.950Z,4.42
2022-10-30T12:35:52.071Z,2.27
2022-10-30T12:37:06.858Z,3.49
2022-10-30T12:38:12.656Z,2.16
2022-10-30T12:39:18.354Z,4.51
2022-10-30T12:40:24.592Z,4.58
2022-10-30T12:41:30.995Z,4.09
2022-10-30T12:42:36.776Z,3.77
2022-10-30T12:43:41.104Z,3.84
2022-10-30T12:45:04.777Z,5.06
2022-10-30T12:46:35.512Z,3.33
2022-10-30T12:47:47.168Z,3.55
2022-10-30T12:48:53.271Z,3.56
2022-10-30T12:50:01.853Z,5.86
2022-10-30T12:51:34.046Z,6.91
2022-10-30T12:52:48.189Z,5.42
2022-10-30T12:54:10.027Z,4.08
2022-10-30T12:55:39.683Z,7.24
2022-10-30T12:56:45.406Z,2.38
2022-10-30T13:00:16.256Z,4.18
2022-10-30T13:03:02.814Z,4.89
2022-10-30T13:04:08.647Z,5.13
2022-10-30T13:05:29.795Z,1.87
2022-10-30T13:06:38.601Z,1.71
2022-10-30T13:08:18.050Z,3.53
2022-10-30T13:09:24.796Z,2.35
2022-10-30T13:10:33.323Z,3.22
2022-10-30T13:11:58.476Z,3.41
2022-10-30T13:13:07.177Z,3.89
2022-10-30T13:14:19.940Z,2.14
2022-10-30T13:15:35.931Z,3.76
2022-10-30T13:16:39.641Z,3.78
2022-10-30T13:17:41.708Z,2.64
2022-10-30T13:18:45.491Z,3.17
2022-10-30T13:19:48.263Z,2.78
2022-10-30T13:22:32.058Z,4.06
2022-10-30T13:23:53.219Z,4.15
2022-10-30T13:25:04.003Z,3.21
2022-10-30T13:26:26.767Z,4.84
2022-10-30T13:27:44.778Z,2.89
2022-10-30T13:28:50.679Z,2.50
2022-10-30T13:30:05.346Z,1.96
2022-10-30T13:31:29.548Z,4.70
2022-10-30T13:33:01.902Z,2.98
2022-10-30T13:34:21.331Z,5.21
2022-10-30T13:35:38.404Z,5.68
2022-10-30T13:37:54.627Z,3.58
2022-10-30T13:39:00.324Z,4.68
2022-10-30T13:40:09.420Z,8.53
2022-10-30T13:41:32.053Z,3.22
2022-10-30T13:44:09.099Z,3.22
2022-10-30T13:45:24.366Z,5.06
2022-10-30T13:46:30.214Z,5.27
2022-10-30T13:47:56.380Z,3.20
2022-10-30T13:49:19.164Z,5.69
2022-10-30T13:50:34.262Z,3.86
2022-10-30T13:51:46.952Z,4.17
2022-10-30T13:52:53.424Z,4.52
2022-10-30T13:54:01.950Z,4.08
2022-10-30T13:55:16.632Z,5.34
2022-10-30T13:56:20.085Z,4.32
2022-10-30T13:57:45.509Z,3.08
2022-10-30T13:59:09.084Z,2.96
2022-10-30T14:00:25.732Z,3.17
2022-10-30T14:01:34.500Z,3.53
2022-10-30T14:02:46.435Z,2.96
2022-10-30T14:04:07.282Z,3.70
2022-10-30T14:05:32.840Z,2.56
2022-10-30T14:06:53.712Z,6.86
2022-10-30T14:08:06.447Z,3.44
2022-10-30T14:09:29.592Z,6.24
2022-10-30T14:10:48.186Z,3.81
2022-10-30T14:11:53.176Z,3.71
2022-10-30T14:12:59.239Z,3.81
2022-10-30T14:14:25.346Z,3.79
2022-10-30T14:15:31.553Z,4.06
2022-10-30T14:16:44.853Z,2.31
2022-10-30T14:18:10.443Z,6.70
2022-10-30T14:19:15.034Z,2.00
2022-10-30T14:20:23.536Z,1.49
2022-10-30T14:21:42.794Z,4.94
2022-10-30T14:22:48.477Z,2.02
2022-10-30T14:23:55.874Z,3.47
2022-10-30T14:24:58.410Z,8.49
2022-10-30T14:26:06.844Z,7.93
2022-10-30T14:27:10.487Z,4.21
2022-10-30T14:28:20.298Z,2.11
2022-10-30T14:29:43.904Z,8.18
2022-10-30T14:30:46.275Z,9.92
2022-10-30T14:31:48.499Z,4.01
2022-10-30T14:32:52.461Z,7.76
2022-10-30T14:33:55.266Z,5.24
2022-10-30T14:34:58.820Z,4.29
2022-10-30T14:37:29.943Z,3.65
2022-10-30T14:38:36.219Z,5.56
2022-10-30T14:39:46.464Z,2.63
2022-10-30T14:40:55.026Z,5.24
2022-10-30T14:42:17.761Z,3.44
2022-10-30T14:43:32.631Z,5.55
2022-10-30T14:44:55.133Z,5.43
2022-10-30T14:47:30.789Z,5.10
2022-10-30T14:48:36.468Z,2.37
2022-10-30T14:49:51.352Z,5.48
2022-10-30T14:51:07.391Z,7.21
2022-10-30T14:52:32.113Z,5.38
2022-10-30T14:53:53.276Z,5.41
2022-10-30T14:55:08.022Z,3.68
2022-10-30T14:57:46.897Z,4.34
2022-10-30T14:59:14.206Z,3.60
2022-10-30T15:00:26.540Z,4.32
2022-10-30T15:01:38.657Z,2.91
2022-10-30T15:02:50.511Z,6.88
2022-10-30T15:04:11.568Z,4.71
2022-10-30T15:05:32.404Z,5.26
2022-10-30T15:06:48.466Z,3.79
2022-10-30T15:07:57.581Z,4.30
2022-10-30T15:09:06.770Z,4.34
2022-10-30T15:10:28.109Z,3.18
2022-10-30T15:11:57.077Z,5.50
2022-10-30T15:13:06.261Z,4.22
2022-10-30T15:14:21.763Z,3.02
2022-10-30T15:15:18.087Z,3.06
2022-10-30T15:16:22.257Z,3.28
2022-10-30T15:17:42.472Z,4.81
2022-10-30T15:19:06.607Z,6.30
2022-10-30T15:20:21.980Z,3.25
2022-10-30T15:21:26.525Z,2.80
2022-10-30T15:22:35.598Z,3.06